sensor_id;sensor_type;location;lat;lon;timestamp;pressure;altitude;pressure_sealevel;temperature
68588;BMP180;55560;52.174;20.996;2024-03-07T00:00:17;101466.20;;;4.50
68588;BMP180;55560;52.174;20.996;2024-03-07T00:03:06;101469.80;;;4.40
68588;BMP180;55560;52.174;20.996;2024-03-07T00:05:34;101469.40;;;4.40
68588;BMP180;55560;52.174;20.996;2024-03-07T00:08:02;101469.80;;;4.40
68588;BMP180;55560;52.174;20.996;2024-03-07T00:10:30;101465.20;;;4.48
68588;BMP180;55560;52.174;20.996;2024-03-07T00:12:59;101463.00;;;4.46
68588;BMP180;55560;52.174;20.996;2024-03-07T00:15:28;101467.20;;;4.40
68588;BMP180;55560;52.174;20.996;2024-03-07T00:17:57;101465.60;;;4.40
68588;BMP180;55560;52.174;20.996;2024-03-07T00:20:25;101467.20;;;4.40
68588;BMP180;55560;52.174;20.996;2024-03-07T00:22:53;101468.00;;;4.40
68588;BMP180;55560;52.174;20.996;2024-03-07T00:25:21;101465.40;;;4.40
68588;BMP180;55560;52.174;20.996;2024-03-07T00:27:50;101466.60;;;4.40
68588;BMP180;55560;52.174;20.996;2024-03-07T00:30:20;101468.20;;;4.30
68588;BMP180;55560;52.174;20.996;2024-03-07T00:32:48;101468.80;;;4.30
68588;BMP180;55560;52.174;20.996;2024-03-07T00:35:16;101468.20;;;4.20
68588;BMP180;55560;52.174;20.996;2024-03-07T00:37:45;101469.00;;;4.20
68588;BMP180;55560;52.174;20.996;2024-03-07T00:40:13;101464.60;;;4.20
68588;BMP180;55560;52.174;20.996;2024-03-07T00:42:40;101469.20;;;4.18
68588;BMP180;55560;52.174;20.996;2024-03-07T00:45:08;101464.20;;;4.10
68588;BMP180;55560;52.174;20.996;2024-03-07T00:47:36;101468.40;;;4.10
68588;BMP180;55560;52.174;20.996;2024-03-07T00:50:06;101469.40;;;4.10
68588;BMP180;55560;52.174;20.996;2024-03-07T00:52:36;101464.20;;;4.06
68588;BMP180;55560;52.174;20.996;2024-03-07T00:55:05;101471.20;;;4.00
68588;BMP180;55560;52.174;20.996;2024-03-07T00:57:36;101466.80;;;4.00
68588;BMP180;55560;52.174;20.996;2024-03-07T01:00:04;101464.40;;;4.00
68588;BMP180;55560;52.174;20.996;2024-03-07T01:02:33;101466.20;;;4.00
68588;BMP180;55560;52.174;20.996;2024-03-07T01:05:02;101464.60;;;4.00
68588;BMP180;55560;52.174;20.996;2024-03-07T01:07:36;101466.80;;;3.92
68588;BMP180;55560;52.174;20.996;2024-03-07T01:10:05;101462.40;;;3.90
68588;BMP180;55560;52.174;20.996;2024-03-07T01:12:33;101463.80;;;3.90
68588;BMP180;55560;52.174;20.996;2024-03-07T01:15:02;101462.80;;;3.90
68588;BMP180;55560;52.174;20.996;2024-03-07T01:17:32;101464.20;;;3.90
68588;BMP180;55560;52.174;20.996;2024-03-07T01:20:00;101465.00;;;3.90
68588;BMP180;55560;52.174;20.996;2024-03-07T01:22:29;101464.00;;;3.80
68588;BMP180;55560;52.174;20.996;2024-03-07T01:24:57;101463.40;;;3.80
68588;BMP180;55560;52.174;20.996;2024-03-07T01:27:25;101463.60;;;3.80
68588;BMP180;55560;52.174;20.996;2024-03-07T01:29:53;101466.20;;;3.80
68588;BMP180;55560;52.174;20.996;2024-03-07T01:32:21;101464.80;;;3.80
68588;BMP180;55560;52.174;20.996;2024-03-07T01:34:49;101464.80;;;3.70
68588;BMP180;55560;52.174;20.996;2024-03-07T01:37:17;101468.20;;;3.70
68588;BMP180;55560;52.174;20.996;2024-03-07T01:39:44;101465.80;;;3.70
68588;BMP180;55560;52.174;20.996;2024-03-07T01:42:14;101472.20;;;3.60
68588;BMP180;55560;52.174;20.996;2024-03-07T01:44:42;101470.80;;;3.60
68588;BMP180;55560;52.174;20.996;2024-03-07T01:47:11;101469.40;;;3.60
68588;BMP180;55560;52.174;20.996;2024-03-07T01:49:40;101471.20;;;3.60
68588;BMP180;55560;52.174;20.996;2024-03-07T01:52:08;101463.40;;;3.60
68588;BMP180;55560;52.174;20.996;2024-03-07T01:54:37;101465.80;;;3.60
68588;BMP180;55560;52.174;20.996;2024-03-07T01:57:05;101465.20;;;3.50
68588;BMP180;55560;52.174;20.996;2024-03-07T01:59:33;101462.20;;;3.50
68588;BMP180;55560;52.174;20.996;2024-03-07T02:02:00;101463.60;;;3.50
68588;BMP180;55560;52.174;20.996;2024-03-07T02:04:29;101467.40;;;3.50
68588;BMP180;55560;52.174;20.996;2024-03-07T02:06:57;101467.00;;;3.50
68588;BMP180;55560;52.174;20.996;2024-03-07T02:09:26;101467.40;;;3.50
68588;BMP180;55560;52.174;20.996;2024-03-07T02:11:54;101469.00;;;3.50
68588;BMP180;55560;52.174;20.996;2024-03-07T02:14:22;101472.80;;;3.50
68588;BMP180;55560;52.174;20.996;2024-03-07T02:16:50;101473.80;;;3.50
68588;BMP180;55560;52.174;20.996;2024-03-07T02:19:18;101469.00;;;3.50
68588;BMP180;55560;52.174;20.996;2024-03-07T02:21:45;101465.40;;;3.50
68588;BMP180;55560;52.174;20.996;2024-03-07T02:24:13;101459.80;;;3.50
68588;BMP180;55560;52.174;20.996;2024-03-07T02:26:43;101465.00;;;3.46
68588;BMP180;55560;52.174;20.996;2024-03-07T02:29:11;101464.00;;;3.40
68588;BMP180;55560;52.174;20.996;2024-03-07T02:31:39;101462.00;;;3.40
68588;BMP180;55560;52.174;20.996;2024-03-07T02:34:09;101468.60;;;3.40
68588;BMP180;55560;52.174;20.996;2024-03-07T02:36:37;101469.40;;;3.30
68588;BMP180;55560;52.174;20.996;2024-03-07T02:39:04;101477.20;;;3.30
68588;BMP180;55560;52.174;20.996;2024-03-07T02:41:34;101472.60;;;3.26
68588;BMP180;55560;52.174;20.996;2024-03-07T02:44:01;101471.00;;;3.20
68588;BMP180;55560;52.174;20.996;2024-03-07T02:46:31;101470.40;;;3.20
68588;BMP180;55560;52.174;20.996;2024-03-07T02:49:00;101467.20;;;3.20
68588;BMP180;55560;52.174;20.996;2024-03-07T02:51:28;101467.00;;;3.14
68588;BMP180;55560;52.174;20.996;2024-03-07T02:53:56;101471.60;;;3.10
68588;BMP180;55560;52.174;20.996;2024-03-07T02:56:24;101477.60;;;3.00
68588;BMP180;55560;52.174;20.996;2024-03-07T02:58:52;101474.20;;;3.00
68588;BMP180;55560;52.174;20.996;2024-03-07T03:01:20;101472.80;;;3.00
68588;BMP180;55560;52.174;20.996;2024-03-07T03:03:48;101477.60;;;2.90
68588;BMP180;55560;52.174;20.996;2024-03-07T03:06:16;101477.60;;;2.90
68588;BMP180;55560;52.174;20.996;2024-03-07T03:08:43;101476.80;;;2.80
68588;BMP180;55560;52.174;20.996;2024-03-07T03:11:11;101478.00;;;2.80
68588;BMP180;55560;52.174;20.996;2024-03-07T03:13:41;101476.00;;;2.70
68588;BMP180;55560;52.174;20.996;2024-03-07T03:16:09;101477.80;;;2.70
68588;BMP180;55560;52.174;20.996;2024-03-07T03:18:38;101478.00;;;2.70
68588;BMP180;55560;52.174;20.996;2024-03-07T03:21:06;101483.60;;;2.60
68588;BMP180;55560;52.174;20.996;2024-03-07T03:23:35;101482.40;;;2.50
68588;BMP180;55560;52.174;20.996;2024-03-07T03:26:03;101478.20;;;2.48
68588;BMP180;55560;52.174;20.996;2024-03-07T03:28:31;101482.40;;;2.40
68588;BMP180;55560;52.174;20.996;2024-03-07T03:30:59;101483.00;;;2.40
68588;BMP180;55560;52.174;20.996;2024-03-07T03:33:27;101481.80;;;2.40
68588;BMP180;55560;52.174;20.996;2024-03-07T03:35:55;101480.60;;;2.30
68588;BMP180;55560;52.174;20.996;2024-03-07T03:38:23;101480.40;;;2.30
68588;BMP180;55560;52.174;20.996;2024-03-07T03:40:51;101483.00;;;2.20
68588;BMP180;55560;52.174;20.996;2024-03-07T03:43:19;101484.20;;;2.10
68588;BMP180;55560;52.174;20.996;2024-03-07T03:45:47;101492.60;;;2.10
68588;BMP180;55560;52.174;20.996;2024-03-07T03:48:15;101489.20;;;2.00
68588;BMP180;55560;52.174;20.996;2024-03-07T03:50:43;101490.20;;;2.00
68588;BMP180;55560;52.174;20.996;2024-03-07T03:53:11;101490.60;;;1.90
68588;BMP180;55560;52.174;20.996;2024-03-07T03:55:39;101488.40;;;1.90
68588;BMP180;55560;52.174;20.996;2024-03-07T03:58:08;101487.40;;;1.80
68588;BMP180;55560;52.174;20.996;2024-03-07T04:00:36;101490.60;;;1.70
68588;BMP180;55560;52.174;20.996;2024-03-07T04:03:07;101490.80;;;1.70
68588;BMP180;55560;52.174;20.996;2024-03-07T04:05:35;101488.80;;;1.66
68588;BMP180;55560;52.174;20.996;2024-03-07T04:08:03;101488.20;;;1.60
68588;BMP180;55560;52.174;20.996;2024-03-07T04:10:31;101493.60;;;1.60
68588;BMP180;55560;52.174;20.996;2024-03-07T04:12:59;101488.60;;;1.50
68588;BMP180;55560;52.174;20.996;2024-03-07T04:15:27;101487.40;;;1.50
68588;BMP180;55560;52.174;20.996;2024-03-07T04:18:02;101492.80;;;1.50
68588;BMP180;55560;52.174;20.996;2024-03-07T04:20:30;101495.20;;;1.44
68588;BMP180;55560;52.174;20.996;2024-03-07T04:22:58;101495.20;;;1.40
68588;BMP180;55560;52.174;20.996;2024-03-07T04:25:26;101494.40;;;1.40
68588;BMP180;55560;52.174;20.996;2024-03-07T04:27:53;101497.00;;;1.40
68588;BMP180;55560;52.174;20.996;2024-03-07T04:30:21;101495.40;;;1.30
68588;BMP180;55560;52.174;20.996;2024-03-07T04:32:49;101495.80;;;1.30
68588;BMP180;55560;52.174;20.996;2024-03-07T04:35:17;101498.80;;;1.20
68588;BMP180;55560;52.174;20.996;2024-03-07T04:37:47;101498.40;;;1.14
68588;BMP180;55560;52.174;20.996;2024-03-07T04:40:15;101500.40;;;1.10
68588;BMP180;55560;52.174;20.996;2024-03-07T04:42:47;101496.40;;;1.10
68588;BMP180;55560;52.174;20.996;2024-03-07T04:45:16;101499.20;;;1.00
68588;BMP180;55560;52.174;20.996;2024-03-07T04:47:45;101503.40;;;1.00
68588;BMP180;55560;52.174;20.996;2024-03-07T04:50:16;101506.60;;;0.90
68588;BMP180;55560;52.174;20.996;2024-03-07T04:52:48;101506.20;;;0.90
68588;BMP180;55560;52.174;20.996;2024-03-07T04:55:17;101500.60;;;0.90
68588;BMP180;55560;52.174;20.996;2024-03-07T04:57:46;101499.60;;;0.80
68588;BMP180;55560;52.174;20.996;2024-03-07T05:00:14;101508.40;;;0.80
68588;BMP180;55560;52.174;20.996;2024-03-07T05:02:47;101511.00;;;0.70
68588;BMP180;55560;52.174;20.996;2024-03-07T05:05:16;101505.00;;;0.70
68588;BMP180;55560;52.174;20.996;2024-03-07T05:07:52;101509.00;;;0.70
68588;BMP180;55560;52.174;20.996;2024-03-07T05:10:20;101510.60;;;0.68
68588;BMP180;55560;52.174;20.996;2024-03-07T05:12:49;101516.60;;;0.60
68588;BMP180;55560;52.174;20.996;2024-03-07T05:15:17;101518.40;;;0.60
68588;BMP180;55560;52.174;20.996;2024-03-07T05:17:45;101518.20;;;0.60
68588;BMP180;55560;52.174;20.996;2024-03-07T05:20:13;101526.00;;;0.50
68588;BMP180;55560;52.174;20.996;2024-03-07T05:22:41;101525.40;;;0.50
68588;BMP180;55560;52.174;20.996;2024-03-07T05:25:16;101528.20;;;0.50
68588;BMP180;55560;52.174;20.996;2024-03-07T05:27:45;101530.40;;;0.44
68588;BMP180;55560;52.174;20.996;2024-03-07T05:30:13;101535.00;;;0.44
68588;BMP180;55560;52.174;20.996;2024-03-07T05:32:43;101533.20;;;0.40
68588;BMP180;55560;52.174;20.996;2024-03-07T05:35:11;101536.20;;;0.40
68588;BMP180;55560;52.174;20.996;2024-03-07T05:37:39;101536.40;;;0.46
68588;BMP180;55560;52.174;20.996;2024-03-07T05:40:14;101538.00;;;0.46
68588;BMP180;55560;52.174;20.996;2024-03-07T05:42:43;101537.00;;;0.40
68588;BMP180;55560;52.174;20.996;2024-03-07T05:45:10;101535.60;;;0.40
68588;BMP180;55560;52.174;20.996;2024-03-07T05:47:38;101536.40;;;0.40
68588;BMP180;55560;52.174;20.996;2024-03-07T05:50:07;101535.00;;;0.40
68588;BMP180;55560;52.174;20.996;2024-03-07T05:52:38;101537.00;;;0.40
68588;BMP180;55560;52.174;20.996;2024-03-07T05:55:06;101532.40;;;0.42
68588;BMP180;55560;52.174;20.996;2024-03-07T05:57:34;101536.60;;;0.50
68588;BMP180;55560;52.174;20.996;2024-03-07T06:00:02;101539.00;;;0.44
68588;BMP180;55560;52.174;20.996;2024-03-07T06:02:39;101542.40;;;0.50
68588;BMP180;55560;52.174;20.996;2024-03-07T06:05:07;101543.00;;;0.50
68588;BMP180;55560;52.174;20.996;2024-03-07T06:07:43;101544.80;;;0.50
68588;BMP180;55560;52.174;20.996;2024-03-07T06:10:13;101543.40;;;0.50
68588;BMP180;55560;52.174;20.996;2024-03-07T06:12:44;101542.60;;;0.50
68588;BMP180;55560;52.174;20.996;2024-03-07T06:15:33;101541.80;;;0.50
68588;BMP180;55560;52.174;20.996;2024-03-07T06:18:02;101544.20;;;0.50
68588;BMP180;55560;52.174;20.996;2024-03-07T06:20:30;101545.40;;;0.54
68588;BMP180;55560;52.174;20.996;2024-03-07T06:22:59;101547.20;;;0.60
68588;BMP180;55560;52.174;20.996;2024-03-07T06:25:29;101542.20;;;0.60
68588;BMP180;55560;52.174;20.996;2024-03-07T06:28:26;101546.40;;;0.60
68588;BMP180;55560;52.174;20.996;2024-03-07T06:30:57;101546.40;;;0.66
68588;BMP180;55560;52.174;20.996;2024-03-07T06:33:25;101544.60;;;0.70
68588;BMP180;55560;52.174;20.996;2024-03-07T06:35:54;101552.40;;;0.70
68588;BMP180;55560;52.174;20.996;2024-03-07T06:38:23;101546.60;;;0.72
68588;BMP180;55560;52.174;20.996;2024-03-07T06:40:51;101545.80;;;0.80
68588;BMP180;55560;52.174;20.996;2024-03-07T06:43:20;101541.40;;;0.80
68588;BMP180;55560;52.174;20.996;2024-03-07T06:45:49;101549.00;;;0.90
68588;BMP180;55560;52.174;20.996;2024-03-07T06:48:17;101551.40;;;0.96
68588;BMP180;55560;52.174;20.996;2024-03-07T06:50:45;101544.20;;;1.02
68588;BMP180;55560;52.174;20.996;2024-03-07T06:53:13;101543.60;;;1.06
68588;BMP180;55560;52.174;20.996;2024-03-07T06:55:41;101546.40;;;1.10
68588;BMP180;55560;52.174;20.996;2024-03-07T06:58:09;101545.80;;;1.10
68588;BMP180;55560;52.174;20.996;2024-03-07T07:00:38;101545.80;;;1.20
68588;BMP180;55560;52.174;20.996;2024-03-07T07:03:07;101545.80;;;1.20
68588;BMP180;55560;52.174;20.996;2024-03-07T07:05:36;101546.20;;;1.28
68588;BMP180;55560;52.174;20.996;2024-03-07T07:08:04;101545.20;;;1.30
68588;BMP180;55560;52.174;20.996;2024-03-07T07:10:32;101551.20;;;1.40
68588;BMP180;55560;52.174;20.996;2024-03-07T07:13:00;101551.00;;;1.50
68588;BMP180;55560;52.174;20.996;2024-03-07T07:15:28;101550.20;;;1.52
68588;BMP180;55560;52.174;20.996;2024-03-07T07:17:56;101552.60;;;1.60
68588;BMP180;55560;52.174;20.996;2024-03-07T07:20:24;101555.00;;;1.66
68588;BMP180;55560;52.174;20.996;2024-03-07T07:22:52;101557.00;;;1.70
68588;BMP180;55560;52.174;20.996;2024-03-07T07:25:21;101553.60;;;1.70
68588;BMP180;55560;52.174;20.996;2024-03-07T07:27:50;101553.80;;;1.70
68588;BMP180;55560;52.174;20.996;2024-03-07T07:30:22;101553.00;;;1.78
68588;BMP180;55560;52.174;20.996;2024-03-07T07:32:51;101553.60;;;1.88
68588;BMP180;55560;52.174;20.996;2024-03-07T07:35:19;101555.00;;;1.90
68588;BMP180;55560;52.174;20.996;2024-03-07T07:37:49;101551.80;;;2.00
68588;BMP180;55560;52.174;20.996;2024-03-07T07:40:19;101555.40;;;2.08
68588;BMP180;55560;52.174;20.996;2024-03-07T07:42:50;101551.60;;;2.20
68588;BMP180;55560;52.174;20.996;2024-03-07T07:45:21;101556.00;;;2.30
68588;BMP180;55560;52.174;20.996;2024-03-07T07:47:50;101555.40;;;2.40
68588;BMP180;55560;52.174;20.996;2024-03-07T07:50:23;101554.60;;;2.66
68588;BMP180;55560;52.174;20.996;2024-03-07T07:52:54;101554.20;;;3.44
68588;BMP180;55560;52.174;20.996;2024-03-07T07:55:27;101554.80;;;4.10
68588;BMP180;55560;52.174;20.996;2024-03-07T07:57:59;101551.00;;;5.18
68588;BMP180;55560;52.174;20.996;2024-03-07T08:00:28;101552.20;;;6.46
68588;BMP180;55560;52.174;20.996;2024-03-07T08:03:02;101552.20;;;6.70
68588;BMP180;55560;52.174;20.996;2024-03-07T08:05:35;101555.00;;;6.70
68588;BMP180;55560;52.174;20.996;2024-03-07T08:08:08;101553.40;;;6.52
68588;BMP180;55560;52.174;20.996;2024-03-07T08:10:37;101552.20;;;6.50
68588;BMP180;55560;52.174;20.996;2024-03-07T08:13:06;101559.80;;;6.04
68588;BMP180;55560;52.174;20.996;2024-03-07T08:15:34;101560.20;;;5.76
68588;BMP180;55560;52.174;20.996;2024-03-07T08:18:02;101553.40;;;5.48
68588;BMP180;55560;52.174;20.996;2024-03-07T08:20:37;101551.40;;;5.20
68588;BMP180;55560;52.174;20.996;2024-03-07T08:23:07;101547.40;;;5.10
68588;BMP180;55560;52.174;20.996;2024-03-07T08:25:34;101549.60;;;5.10
68588;BMP180;55560;52.174;20.996;2024-03-07T08:28:02;101552.80;;;5.58
68588;BMP180;55560;52.174;20.996;2024-03-07T08:30:30;101552.80;;;6.00
68588;BMP180;55560;52.174;20.996;2024-03-07T08:32:58;101554.00;;;6.60
68588;BMP180;55560;52.174;20.996;2024-03-07T08:35:30;101546.00;;;7.86
68588;BMP180;55560;52.174;20.996;2024-03-07T08:37:58;101549.00;;;8.68
68588;BMP180;55560;52.174;20.996;2024-03-07T08:40:27;101550.60;;;9.30
68588;BMP180;55560;52.174;20.996;2024-03-07T08:43:01;101550.20;;;8.74
68588;BMP180;55560;52.174;20.996;2024-03-07T08:45:30;101549.40;;;8.40
68588;BMP180;55560;52.174;20.996;2024-03-07T08:48:03;101545.20;;;9.04
68588;BMP180;55560;52.174;20.996;2024-03-07T08:50:38;101545.60;;;9.00
68588;BMP180;55560;52.174;20.996;2024-03-07T08:53:07;101550.20;;;8.84
68588;BMP180;55560;52.174;20.996;2024-03-07T08:55:36;101544.20;;;8.28
68588;BMP180;55560;52.174;20.996;2024-03-07T08:58:05;101543.40;;;7.74
68588;BMP180;55560;52.174;20.996;2024-03-07T09:00:36;101546.00;;;7.38
68588;BMP180;55560;52.174;20.996;2024-03-07T09:03:07;101545.00;;;7.08
68588;BMP180;55560;52.174;20.996;2024-03-07T09:05:40;101541.80;;;6.72
68588;BMP180;55560;52.174;20.996;2024-03-07T09:08:08;101539.80;;;6.50
68588;BMP180;55560;52.174;20.996;2024-03-07T09:10:36;101537.00;;;6.30
68588;BMP180;55560;52.174;20.996;2024-03-07T09:13:04;101536.00;;;6.10
68588;BMP180;55560;52.174;20.996;2024-03-07T09:15:33;101535.40;;;6.02
68588;BMP180;55560;52.174;20.996;2024-03-07T09:18:01;101531.60;;;5.92
68588;BMP180;55560;52.174;20.996;2024-03-07T09:20:31;101530.60;;;5.80
68588;BMP180;55560;52.174;20.996;2024-03-07T09:22:59;101530.20;;;5.60
68588;BMP180;55560;52.174;20.996;2024-03-07T09:25:28;101525.40;;;5.50
68588;BMP180;55560;52.174;20.996;2024-03-07T09:28:00;101529.60;;;5.50
68588;BMP180;55560;52.174;20.996;2024-03-07T09:30:28;101521.40;;;5.50
68588;BMP180;55560;52.174;20.996;2024-03-07T09:32:58;101527.60;;;5.40
68588;BMP180;55560;52.174;20.996;2024-03-07T09:35:26;101529.20;;;5.40
68588;BMP180;55560;52.174;20.996;2024-03-07T09:37:54;101534.20;;;5.30
68588;BMP180;55560;52.174;20.996;2024-03-07T09:40:23;101536.00;;;5.30
68588;BMP180;55560;52.174;20.996;2024-03-07T09:42:55;101532.40;;;5.30
68588;BMP180;55560;52.174;20.996;2024-03-07T09:45:30;101531.80;;;5.40
68588;BMP180;55560;52.174;20.996;2024-03-07T09:47:59;101534.40;;;5.44
68588;BMP180;55560;52.174;20.996;2024-03-07T09:50:29;101538.20;;;5.40
68588;BMP180;55560;52.174;20.996;2024-03-07T09:52:58;101533.60;;;5.48
68588;BMP180;55560;52.174;20.996;2024-03-07T09:55:26;101533.40;;;5.50
68588;BMP180;55560;52.174;20.996;2024-03-07T09:57:54;101539.80;;;5.50
68588;BMP180;55560;52.174;20.996;2024-03-07T10:00:25;101536.40;;;5.50
68588;BMP180;55560;52.174;20.996;2024-03-07T10:03:06;101532.80;;;5.50
68588;BMP180;55560;52.174;20.996;2024-03-07T10:05:35;101540.20;;;5.50
68588;BMP180;55560;52.174;20.996;2024-03-07T10:08:06;101539.80;;;5.58
68588;BMP180;55560;52.174;20.996;2024-03-07T10:10:35;101541.00;;;5.60
68588;BMP180;55560;52.174;20.996;2024-03-07T10:13:03;101531.40;;;5.64
68588;BMP180;55560;52.174;20.996;2024-03-07T10:15:33;101524.20;;;5.60
68588;BMP180;55560;52.174;20.996;2024-03-07T10:18:06;101527.00;;;5.70
68588;BMP180;55560;52.174;20.996;2024-03-07T10:20:34;101529.20;;;5.60
68588;BMP180;55560;52.174;20.996;2024-03-07T10:23:03;101532.40;;;5.60
68588;BMP180;55560;52.174;20.996;2024-03-07T10:25:31;101525.20;;;5.68
68588;BMP180;55560;52.174;20.996;2024-03-07T10:28:02;101527.60;;;5.60
68588;BMP180;55560;52.174;20.996;2024-03-07T10:30:39;101518.40;;;5.68
68588;BMP180;55560;52.174;20.996;2024-03-07T10:33:07;101516.00;;;5.70
68588;BMP180;55560;52.174;20.996;2024-03-07T10:35:36;101521.60;;;5.70
68588;BMP180;55560;52.174;20.996;2024-03-07T10:38:04;101517.40;;;5.76
68588;BMP180;55560;52.174;20.996;2024-03-07T10:40:36;101520.40;;;5.80
68588;BMP180;55560;52.174;20.996;2024-03-07T10:43:10;101522.40;;;5.80
68588;BMP180;55560;52.174;20.996;2024-03-07T10:45:48;101524.00;;;5.82
68588;BMP180;55560;52.174;20.996;2024-03-07T10:48:18;101518.00;;;5.90
68588;BMP180;55560;52.174;20.996;2024-03-07T10:56:42;101518.80;;;5.92
68588;BMP180;55560;52.174;20.996;2024-03-07T10:59:17;101516.60;;;5.92
68588;BMP180;55560;52.174;20.996;2024-03-07T11:04:54;101517.20;;;5.94
68588;BMP180;55560;52.174;20.996;2024-03-07T11:07:23;101517.00;;;5.90
68588;BMP180;55560;52.174;20.996;2024-03-07T11:09:52;101512.80;;;6.00
68588;BMP180;55560;52.174;20.996;2024-03-07T11:12:21;101512.60;;;6.00
68588;BMP180;55560;52.174;20.996;2024-03-07T11:14:50;101510.20;;;6.02
68588;BMP180;55560;52.174;20.996;2024-03-07T11:17:19;101518.60;;;6.10
68588;BMP180;55560;52.174;20.996;2024-03-07T11:19:48;101516.60;;;6.20
68588;BMP180;55560;52.174;20.996;2024-03-07T11:22:30;101513.60;;;6.20
68588;BMP180;55560;52.174;20.996;2024-03-07T11:25:06;101505.20;;;6.20
68588;BMP180;55560;52.174;20.996;2024-03-07T11:27:39;101503.40;;;6.28
68588;BMP180;55560;52.174;20.996;2024-03-07T11:30:08;101499.80;;;6.30
68588;BMP180;55560;52.174;20.996;2024-03-07T11:32:39;101502.40;;;6.36
68588;BMP180;55560;52.174;20.996;2024-03-07T11:35:12;101502.40;;;6.40
68588;BMP180;55560;52.174;20.996;2024-03-07T11:37:43;101506.00;;;6.50
68588;BMP180;55560;52.174;20.996;2024-03-07T11:42:47;101496.20;;;6.60
68588;BMP180;55560;52.174;20.996;2024-03-07T11:45:19;101499.20;;;6.52
68588;BMP180;55560;52.174;20.996;2024-03-07T11:47:57;101492.80;;;6.50
68588;BMP180;55560;52.174;20.996;2024-03-07T11:50:29;101493.00;;;6.50
68588;BMP180;55560;52.174;20.996;2024-03-07T11:53:04;101490.60;;;6.60
68588;BMP180;55560;52.174;20.996;2024-03-07T11:55:37;101491.00;;;6.60
68588;BMP180;55560;52.174;20.996;2024-03-07T11:58:18;101484.40;;;6.70
68588;BMP180;55560;52.174;20.996;2024-03-07T12:00:51;101479.40;;;6.70
68588;BMP180;55560;52.174;20.996;2024-03-07T12:03:20;101480.00;;;6.72
68588;BMP180;55560;52.174;20.996;2024-03-07T12:05:50;101479.40;;;6.72
68588;BMP180;55560;52.174;20.996;2024-03-07T12:08:19;101480.60;;;6.80
68588;BMP180;55560;52.174;20.996;2024-03-07T12:10:52;101477.80;;;6.80
68588;BMP180;55560;52.174;20.996;2024-03-07T12:13:26;101480.40;;;6.80
68588;BMP180;55560;52.174;20.996;2024-03-07T12:15:55;101482.80;;;6.90
68588;BMP180;55560;52.174;20.996;2024-03-07T12:18:26;101476.80;;;7.00
68588;BMP180;55560;52.174;20.996;2024-03-07T12:20:55;101466.80;;;7.08
68588;BMP180;55560;52.174;20.996;2024-03-07T12:23:27;101468.80;;;7.20
68588;BMP180;55560;52.174;20.996;2024-03-07T12:26:04;101465.80;;;7.30
68588;BMP180;55560;52.174;20.996;2024-03-07T12:28:33;101465.20;;;7.30
68588;BMP180;55560;52.174;20.996;2024-03-07T12:31:03;101471.60;;;7.40
68588;BMP180;55560;52.174;20.996;2024-03-07T12:33:33;101460.20;;;7.50
68588;BMP180;55560;52.174;20.996;2024-03-07T12:36:08;101466.40;;;7.48
68588;BMP180;55560;52.174;20.996;2024-03-07T12:38:38;101463.80;;;7.50
68588;BMP180;55560;52.174;20.996;2024-03-07T12:41:10;101463.20;;;7.50
68588;BMP180;55560;52.174;20.996;2024-03-07T12:43:43;101462.80;;;7.60
68588;BMP180;55560;52.174;20.996;2024-03-07T12:46:11;101459.60;;;7.80
68588;BMP180;55560;52.174;20.996;2024-03-07T12:48:40;101456.60;;;7.80
68588;BMP180;55560;52.174;20.996;2024-03-07T12:51:09;101458.20;;;7.90
68588;BMP180;55560;52.174;20.996;2024-03-07T12:53:37;101458.40;;;8.00
68588;BMP180;55560;52.174;20.996;2024-03-07T12:56:05;101461.00;;;8.10
68588;BMP180;55560;52.174;20.996;2024-03-07T12:58:33;101459.40;;;8.14
68588;BMP180;55560;52.174;20.996;2024-03-07T13:01:01;101448.60;;;8.20
68588;BMP180;55560;52.174;20.996;2024-03-07T13:03:29;101449.20;;;8.30
68588;BMP180;55560;52.174;20.996;2024-03-07T13:05:59;101449.60;;;8.40
68588;BMP180;55560;52.174;20.996;2024-03-07T13:08:30;101446.60;;;8.44
68588;BMP180;55560;52.174;20.996;2024-03-07T13:10:58;101445.20;;;8.52
68588;BMP180;55560;52.174;20.996;2024-03-07T13:13:28;101442.80;;;8.60
68588;BMP180;55560;52.174;20.996;2024-03-07T13:15:56;101432.80;;;8.70
68588;BMP180;55560;52.174;20.996;2024-03-07T13:18:24;101437.80;;;8.80
68588;BMP180;55560;52.174;20.996;2024-03-07T13:20:52;101436.00;;;8.90
68588;BMP180;55560;52.174;20.996;2024-03-07T13:23:20;101438.00;;;9.00
68588;BMP180;55560;52.174;20.996;2024-03-07T13:25:48;101439.80;;;9.00
68588;BMP180;55560;52.174;20.996;2024-03-07T13:28:16;101436.40;;;9.10
68588;BMP180;55560;52.174;20.996;2024-03-07T13:30:46;101432.80;;;9.20
68588;BMP180;55560;52.174;20.996;2024-03-07T13:33:17;101432.00;;;9.30
68588;BMP180;55560;52.174;20.996;2024-03-07T13:35:45;101425.20;;;9.40
68588;BMP180;55560;52.174;20.996;2024-03-07T13:38:14;101429.60;;;9.56
68588;BMP180;55560;52.174;20.996;2024-03-07T13:40:43;101419.40;;;9.70
68588;BMP180;55560;52.174;20.996;2024-03-07T13:43:11;101414.60;;;9.80
68588;BMP180;55560;52.174;20.996;2024-03-07T13:45:38;101419.80;;;9.98
68588;BMP180;55560;52.174;20.996;2024-03-07T13:48:08;101421.80;;;10.00
68588;BMP180;55560;52.174;20.996;2024-03-07T13:50:38;101423.00;;;9.90
68588;BMP180;55560;52.174;20.996;2024-03-07T13:53:25;101426.20;;;9.90
68588;BMP180;55560;52.174;20.996;2024-03-07T14:10:32;101424.00;;;10.20
68588;BMP180;55560;52.174;20.996;2024-03-07T14:13:34;101419.40;;;10.30
68588;BMP180;55560;52.174;20.996;2024-03-07T14:25:25;101409.60;;;10.30
68588;BMP180;55560;52.174;20.996;2024-03-07T14:30:52;101418.20;;;10.20
68588;BMP180;55560;52.174;20.996;2024-03-07T14:33:32;101421.00;;;10.10
68588;BMP180;55560;52.174;20.996;2024-03-07T14:36:13;101415.20;;;10.10
68588;BMP180;55560;52.174;20.996;2024-03-07T14:38:53;101415.40;;;10.00
68588;BMP180;55560;52.174;20.996;2024-03-07T14:41:53;101420.80;;;9.90
68588;BMP180;55560;52.174;20.996;2024-03-07T14:44:22;101418.60;;;9.70
68588;BMP180;55560;52.174;20.996;2024-03-07T14:46:53;101418.60;;;9.40
68588;BMP180;55560;52.174;20.996;2024-03-07T14:49:22;101416.80;;;9.34